sensor_id;sensor_type;location;lat;lon;timestamp;temperature;humidity
16158;DHT22;8184;60.256;18.694;2022-12-29T00:01:11;0.90;99.90
16158;DHT22;8184;60.256;18.694;2022-12-29T00:03:39;0.90;99.90
16158;DHT22;8184;60.256;18.694;2022-12-29T00:06:08;0.90;99.90
16158;DHT22;8184;60.256;18.694;2022-12-29T00:08:36;0.90;99.90
16158;DHT22;8184;60.256;18.694;2022-12-29T00:11:08;0.90;99.90
16158;DHT22;8184;60.256;18.694;2022-12-29T00:13:36;1.00;99.90
16158;DHT22;8184;60.256;18.694;2022-12-29T00:16:24;1.00;99.90
16158;DHT22;8184;60.256;18.694;2022-12-29T00:18:52;1.00;99.90
16158;DHT22;8184;60.256;18.694;2022-12-29T00:21:22;1.00;99.90
16158;DHT22;8184;60.256;18.694;2022-12-29T00:24:09;1.00;99.90
16158;DHT22;8184;60.256;18.694;2022-12-29T00:26:57;1.00;99.90
16158;DHT22;8184;60.256;18.694;2022-12-29T00:29:43;1.00;99.90
16158;DHT22;8184;60.256;18.694;2022-12-29T00:32:31;1.00;99.90
16158;DHT22;8184;60.256;18.694;2022-12-29T00:35:20;1.00;99.90
16158;DHT22;8184;60.256;18.694;2022-12-29T00:37:49;1.00;99.90
16158;DHT22;8184;60.256;18.694;2022-12-29T00:40:35;1.00;99.90
16158;DHT22;8184;60.256;18.694;2022-12-29T00:43:21;1.00;99.90
16158;DHT22;8184;60.256;18.694;2022-12-29T00:46:07;1.00;99.90
16158;DHT22;8184;60.256;18.694;2022-12-29T00:48:46;1.00;99.90
16158;DHT22;8184;60.256;18.694;2022-12-29T00:51:31;1.00;99.90
16158;DHT22;8184;60.256;18.694;2022-12-29T00:53:59;1.00;99.90
16158;DHT22;8184;60.256;18.694;2022-12-29T00:56:28;1.00;99.90
16158;DHT22;8184;60.256;18.694;2022-12-29T00:58:59;1.00;99.90
16158;DHT22;8184;60.256;18.694;2022-12-29T01:01:27;1.10;99.90
16158;DHT22;8184;60.256;18.694;2022-12-29T01:03:57;1.10;99.90
16158;DHT22;8184;60.256;18.694;2022-12-29T01:06:30;1.00;99.90
16158;DHT22;8184;60.256;18.694;2022-12-29T01:08:58;1.00;99.90
16158;DHT22;8184;60.256;18.694;2022-12-29T01:11:44;1.00;99.90
16158;DHT22;8184;60.256;18.694;2022-12-29T01:14:12;1.00;99.90
16158;DHT22;8184;60.256;18.694;2022-12-29T01:16:41;1.00;99.90
16158;DHT22;8184;60.256;18.694;2022-12-29T01:19:10;1.00;99.90
16158;DHT22;8184;60.256;18.694;2022-12-29T01:21:39;1.00;99.90
16158;DHT22;8184;60.256;18.694;2022-12-29T01:24:08;1.00;99.90
16158;DHT22;8184;60.256;18.694;2022-12-29T01:26:36;1.00;99.90
16158;DHT22;8184;60.256;18.694;2022-12-29T01:29:04;1.00;99.90
16158;DHT22;8184;60.256;18.694;2022-12-29T01:31:32;1.00;99.90
16158;DHT22;8184;60.256;18.694;2022-12-29T01:34:01;1.00;99.90
16158;DHT22;8184;60.256;18.694;2022-12-29T01:36:30;0.90;99.90
16158;DHT22;8184;60.256;18.694;2022-12-29T01:38:59;1.00;99.90
16158;DHT22;8184;60.256;18.694;2022-12-29T01:41:28;1.00;99.90
16158;DHT22;8184;60.256;18.694;2022-12-29T01:43:56;1.00;99.90
16158;DHT22;8184;60.256;18.694;2022-12-29T01:46:26;1.00;99.90
16158;DHT22;8184;60.256;18.694;2022-12-29T01:48:57;1.00;99.90
16158;DHT22;8184;60.256;18.694;2022-12-29T01:51:27;1.00;99.90
16158;DHT22;8184;60.256;18.694;2022-12-29T01:54:01;1.00;99.90
16158;DHT22;8184;60.256;18.694;2022-12-29T01:56:30;1.00;99.90
16158;DHT22;8184;60.256;18.694;2022-12-29T01:59:00;1.10;99.90
16158;DHT22;8184;60.256;18.694;2022-12-29T02:01:29;1.10;99.90
16158;DHT22;8184;60.256;18.694;2022-12-29T02:03:57;1.10;99.90
16158;DHT22;8184;60.256;18.694;2022-12-29T02:06:27;1.10;99.90
16158;DHT22;8184;60.256;18.694;2022-12-29T02:08:59;1.10;99.90
16158;DHT22;8184;60.256;18.694;2022-12-29T02:11:29;1.20;99.90
16158;DHT22;8184;60.256;18.694;2022-12-29T02:13:59;1.20;99.90
16158;DHT22;8184;60.256;18.694;2022-12-29T02:16:30;1.20;99.90
16158;DHT22;8184;60.256;18.694;2022-12-29T02:19:11;1.20;99.90
16158;DHT22;8184;60.256;18.694;2022-12-29T02:21:49;1.20;99.90
16158;DHT22;8184;60.256;18.694;2022-12-29T02:27:29;1.30;99.90
16158;DHT22;8184;60.256;18.694;2022-12-29T02:30:07;1.30;99.90
16158;DHT22;8184;60.256;18.694;2022-12-29T02:32:39;1.30;99.90
16158;DHT22;8184;60.256;18.694;2022-12-29T02:35:10;1.20;99.90
16158;DHT22;8184;60.256;18.694;2022-12-29T02:37:45;1.30;99.90
16158;DHT22;8184;60.256;18.694;2022-12-29T02:40:17;1.30;99.90
16158;DHT22;8184;60.256;18.694;2022-12-29T02:42:51;1.30;99.90
16158;DHT22;8184;60.256;18.694;2022-12-29T02:45:26;1.30;99.90
16158;DHT22;8184;60.256;18.694;2022-12-29T02:47:58;1.30;99.90
16158;DHT22;8184;60.256;18.694;2022-12-29T02:50:32;1.30;99.90
16158;DHT22;8184;60.256;18.694;2022-12-29T02:53:02;1.30;99.90
16158;DHT22;8184;60.256;18.694;2022-12-29T02:55:32;1.40;99.90
16158;DHT22;8184;60.256;18.694;2022-12-29T02:58:09;1.30;99.90
16158;DHT22;8184;60.256;18.694;2022-12-29T03:00:42;1.30;99.90
16158;DHT22;8184;60.256;18.694;2022-12-29T03:03:18;1.30;99.90
16158;DHT22;8184;60.256;18.694;2022-12-29T03:05:55;1.40;99.90
16158;DHT22;8184;60.256;18.694;2022-12-29T03:08:27;0.80;99.90
16158;DHT22;8184;60.256;18.694;2022-12-29T03:10:59;1.30;99.90
16158;DHT22;8184;60.256;18.694;2022-12-29T03:13:32;1.40;99.90
16158;DHT22;8184;60.256;18.694;2022-12-29T03:16:20;1.40;99.90
16158;DHT22;8184;60.256;18.694;2022-12-29T03:19:00;1.40;99.90
16158;DHT22;8184;60.256;18.694;2022-12-29T03:21:33;1.50;99.90
16158;DHT22;8184;60.256;18.694;2022-12-29T03:24:23;1.50;99.90
16158;DHT22;8184;60.256;18.694;2022-12-29T03:26:54;1.50;99.90
16158;DHT22;8184;60.256;18.694;2022-12-29T03:29:23;1.50;99.90
16158;DHT22;8184;60.256;18.694;2022-12-29T03:31:52;1.50;99.90
16158;DHT22;8184;60.256;18.694;2022-12-29T03:34:23;1.50;99.90
16158;DHT22;8184;60.256;18.694;2022-12-29T03:36:52;1.50;99.90
16158;DHT22;8184;60.256;18.694;2022-12-29T03:39:24;1.40;99.90
16158;DHT22;8184;60.256;18.694;2022-12-29T03:41:54;1.50;99.90
16158;DHT22;8184;60.256;18.694;2022-12-29T03:44:31;1.50;99.90
16158;DHT22;8184;60.256;18.694;2022-12-29T03:46:59;1.50;99.90
16158;DHT22;8184;60.256;18.694;2022-12-29T03:49:29;1.60;99.90
16158;DHT22;8184;60.256;18.694;2022-12-29T03:51:57;1.50;99.90
16158;DHT22;8184;60.256;18.694;2022-12-29T03:54:25;1.60;99.90
16158;DHT22;8184;60.256;18.694;2022-12-29T03:56:54;1.60;99.90
16158;DHT22;8184;60.256;18.694;2022-12-29T03:59:22;1.60;99.90
16158;DHT22;8184;60.256;18.694;2022-12-29T04:01:51;1.60;99.90
16158;DHT22;8184;60.256;18.694;2022-12-29T04:04:20;1.60;99.90
16158;DHT22;8184;60.256;18.694;2022-12-29T04:06:49;1.70;99.90
16158;DHT22;8184;60.256;18.694;2022-12-29T04:09:17;1.70;99.90
16158;DHT22;8184;60.256;18.694;2022-12-29T04:11:46;1.80;99.90
16158;DHT22;8184;60.256;18.694;2022-12-29T04:14:14;1.80;99.90
16158;DHT22;8184;60.256;18.694;2022-12-29T04:16:43;1.80;99.90
16158;DHT22;8184;60.256;18.694;2022-12-29T04:19:12;1.90;99.90
16158;DHT22;8184;60.256;18.694;2022-12-29T04:21:40;1.90;99.90
16158;DHT22;8184;60.256;18.694;2022-12-29T04:24:10;1.90;99.90
16158;DHT22;8184;60.256;18.694;2022-12-29T04:26:39;1.90;99.90
16158;DHT22;8184;60.256;18.694;2022-12-29T04:29:08;1.90;99.90
16158;DHT22;8184;60.256;18.694;2022-12-29T04:31:37;1.90;99.90
16158;DHT22;8184;60.256;18.694;2022-12-29T04:34:05;2.10;99.90
16158;DHT22;8184;60.256;18.694;2022-12-29T04:36:33;2.10;99.90
16158;DHT22;8184;60.256;18.694;2022-12-29T04:39:01;2.10;99.90
16158;DHT22;8184;60.256;18.694;2022-12-29T04:41:34;2.30;99.90
16158;DHT22;8184;60.256;18.694;2022-12-29T04:44:03;2.30;99.90
16158;DHT22;8184;60.256;18.694;2022-12-29T04:46:31;2.30;99.90
16158;DHT22;8184;60.256;18.694;2022-12-29T04:48:59;2.30;99.90
16158;DHT22;8184;60.256;18.694;2022-12-29T04:51:34;2.40;99.90
16158;DHT22;8184;60.256;18.694;2022-12-29T04:54:03;2.30;99.90
16158;DHT22;8184;60.256;18.694;2022-12-29T04:56:31;2.40;99.90
16158;DHT22;8184;60.256;18.694;2022-12-29T04:59:01;2.20;99.90
16158;DHT22;8184;60.256;18.694;2022-12-29T05:01:29;2.20;99.90
16158;DHT22;8184;60.256;18.694;2022-12-29T05:03:57;2.30;99.90
16158;DHT22;8184;60.256;18.694;2022-12-29T05:06:26;2.20;99.90
16158;DHT22;8184;60.256;18.694;2022-12-29T05:08:54;2.30;99.90
16158;DHT22;8184;60.256;18.694;2022-12-29T05:11:22;2.30;99.90
16158;DHT22;8184;60.256;18.694;2022-12-29T05:13:51;2.30;99.90
16158;DHT22;8184;60.256;18.694;2022-12-29T05:16:20;2.40;99.90
16158;DHT22;8184;60.256;18.694;2022-12-29T05:18:49;2.40;99.90
16158;DHT22;8184;60.256;18.694;2022-12-29T05:21:17;2.30;99.90
16158;DHT22;8184;60.256;18.694;2022-12-29T05:23:45;2.40;99.90
16158;DHT22;8184;60.256;18.694;2022-12-29T05:26:13;2.40;99.90
16158;DHT22;8184;60.256;18.694;2022-12-29T05:28:42;2.50;99.90
16158;DHT22;8184;60.256;18.694;2022-12-29T05:31:10;2.50;99.90
16158;DHT22;8184;60.256;18.694;2022-12-29T05:33:39;2.50;99.90
16158;DHT22;8184;60.256;18.694;2022-12-29T05:36:08;2.40;99.90
16158;DHT22;8184;60.256;18.694;2022-12-29T05:38:37;2.40;99.90
16158;DHT22;8184;60.256;18.694;2022-12-29T05:41:05;2.30;99.90
16158;DHT22;8184;60.256;18.694;2022-12-29T05:43:33;2.30;99.90
16158;DHT22;8184;60.256;18.694;2022-12-29T05:46:01;2.30;99.90
16158;DHT22;8184;60.256;18.694;2022-12-29T05:48:30;2.30;99.90
16158;DHT22;8184;60.256;18.694;2022-12-29T05:51:05;2.40;99.90
16158;DHT22;8184;60.256;18.694;2022-12-29T05:53:35;2.20;99.90
16158;DHT22;8184;60.256;18.694;2022-12-29T05:56:04;2.20;99.90
16158;DHT22;8184;60.256;18.694;2022-12-29T05:58:33;2.30;99.90
16158;DHT22;8184;60.256;18.694;2022-12-29T06:01:01;2.30;99.90
16158;DHT22;8184;60.256;18.694;2022-12-29T06:03:29;2.40;99.90
16158;DHT22;8184;60.256;18.694;2022-12-29T06:05:58;2.30;99.90
16158;DHT22;8184;60.256;18.694;2022-12-29T06:08:27;2.40;99.90
16158;DHT22;8184;60.256;18.694;2022-12-29T06:10:56;2.30;99.90
16158;DHT22;8184;60.256;18.694;2022-12-29T06:13:24;2.40;99.90
16158;DHT22;8184;60.256;18.694;2022-12-29T06:15:52;2.40;99.90
16158;DHT22;8184;60.256;18.694;2022-12-29T06:18:21;2.30;99.90
16158;DHT22;8184;60.256;18.694;2022-12-29T06:20:49;2.40;99.90
16158;DHT22;8184;60.256;18.694;2022-12-29T06:23:18;2.30;99.90
16158;DHT22;8184;60.256;18.694;2022-12-29T06:25:48;2.30;99.90
16158;DHT22;8184;60.256;18.694;2022-12-29T06:28:16;2.30;99.90
16158;DHT22;8184;60.256;18.694;2022-12-29T06:30:45;2.30;99.90
16158;DHT22;8184;60.256;18.694;2022-12-29T06:33:13;2.40;99.90
16158;DHT22;8184;60.256;18.694;2022-12-29T06:35:43;2.50;99.90
16158;DHT22;8184;60.256;18.694;2022-12-29T06:38:14;2.40;99.90
16158;DHT22;8184;60.256;18.694;2022-12-29T06:40:42;2.60;99.90
16158;DHT22;8184;60.256;18.694;2022-12-29T06:43:13;2.60;99.90
16158;DHT22;8184;60.256;18.694;2022-12-29T06:45:42;2.60;99.90
16158;DHT22;8184;60.256;18.694;2022-12-29T06:48:10;2.60;99.90
16158;DHT22;8184;60.256;18.694;2022-12-29T06:50:39;2.60;99.90
16158;DHT22;8184;60.256;18.694;2022-12-29T06:53:07;2.70;99.90
16158;DHT22;8184;60.256;18.694;2022-12-29T06:55:36;2.60;99.90
16158;DHT22;8184;60.256;18.694;2022-12-29T06:58:04;2.70;99.90
16158;DHT22;8184;60.256;18.694;2022-12-29T07:00:34;2.70;99.90
16158;DHT22;8184;60.256;18.694;2022-12-29T07:03:02;2.60;99.90
16158;DHT22;8184;60.256;18.694;2022-12-29T07:05:31;2.60;99.90
16158;DHT22;8184;60.256;18.694;2022-12-29T07:07:59;2.60;99.90
16158;DHT22;8184;60.256;18.694;2022-12-29T07:10:27;2.60;99.90
16158;DHT22;8184;60.256;18.694;2022-12-29T07:12:56;2.60;99.90
16158;DHT22;8184;60.256;18.694;2022-12-29T07:15:24;2.50;99.90
16158;DHT22;8184;60.256;18.694;2022-12-29T07:17:54;2.60;99.90
16158;DHT22;8184;60.256;18.694;2022-12-29T07:20:24;2.50;99.90
16158;DHT22;8184;60.256;18.694;2022-12-29T07:22:53;2.60;99.90
16158;DHT22;8184;60.256;18.694;2022-12-29T07:25:21;2.60;99.90
16158;DHT22;8184;60.256;18.694;2022-12-29T07:27:49;2.60;99.90
16158;DHT22;8184;60.256;18.694;2022-12-29T07:30:17;2.50;99.90
16158;DHT22;8184;60.256;18.694;2022-12-29T07:32:46;2.60;99.90
16158;DHT22;8184;60.256;18.694;2022-12-29T07:35:16;2.60;99.90
16158;DHT22;8184;60.256;18.694;2022-12-29T07:37:44;2.60;99.90
16158;DHT22;8184;60.256;18.694;2022-12-29T07:40:13;2.60;99.90
16158;DHT22;8184;60.256;18.694;2022-12-29T07:42:42;2.70;99.90
16158;DHT22;8184;60.256;18.694;2022-12-29T07:45:13;2.60;99.90
16158;DHT22;8184;60.256;18.694;2022-12-29T07:47:41;2.70;99.90
16158;DHT22;8184;60.256;18.694;2022-12-29T07:50:09;2.70;99.90
16158;DHT22;8184;60.256;18.694;2022-12-29T07:52:39;2.70;99.90
16158;DHT22;8184;60.256;18.694;2022-12-29T07:55:07;2.70;99.90
16158;DHT22;8184;60.256;18.694;2022-12-29T07:57:36;2.60;99.90
16158;DHT22;8184;60.256;18.694;2022-12-29T08:00:04;2.60;99.90
16158;DHT22;8184;60.256;18.694;2022-12-29T08:02:33;2.60;99.90
16158;DHT22;8184;60.256;18.694;2022-12-29T08:05:01;2.70;99.90
16158;DHT22;8184;60.256;18.694;2022-12-29T08:07:29;2.60;99.90
16158;DHT22;8184;60.256;18.694;2022-12-29T08:09:59;2.50;99.90
16158;DHT22;8184;60.256;18.694;2022-12-29T08:12:28;2.70;99.90
16158;DHT22;8184;60.256;18.694;2022-12-29T08:14:56;2.50;99.90
16158;DHT22;8184;60.256;18.694;2022-12-29T08:17:24;2.60;99.90
16158;DHT22;8184;60.256;18.694;2022-12-29T08:19:52;2.60;99.90
16158;DHT22;8184;60.256;18.694;2022-12-29T08:22:23;2.60;99.90
16158;DHT22;8184;60.256;18.694;2022-12-29T08:24:51;2.60;99.90
16158;DHT22;8184;60.256;18.694;2022-12-29T08:27:20;2.50;99.90
16158;DHT22;8184;60.256;18.694;2022-12-29T08:29:49;2.50;99.90
16158;DHT22;8184;60.256;18.694;2022-12-29T08:32:17;2.60;99.90
16158;DHT22;8184;60.256;18.694;2022-12-29T08:34:48;2.60;99.90
16158;DHT22;8184;60.256;18.694;2022-12-29T08:37:17;2.60;99.90
16158;DHT22;8184;60.256;18.694;2022-12-29T08:39:45;2.60;99.90
16158;DHT22;8184;60.256;18.694;2022-12-29T08:42:13;2.60;99.90
16158;DHT22;8184;60.256;18.694;2022-12-29T08:44:43;2.70;99.90
16158;DHT22;8184;60.256;18.694;2022-12-29T08:47:11;2.70;99.90
16158;DHT22;8184;60.256;18.694;2022-12-29T08:49:40;2.70;99.90
16158;DHT22;8184;60.256;18.694;2022-12-29T08:52:08;2.80;99.90
16158;DHT22;8184;60.256;18.694;2022-12-29T08:54:36;2.80;99.90
16158;DHT22;8184;60.256;18.694;2022-12-29T08:57:04;2.80;99.90
16158;DHT22;8184;60.256;18.694;2022-12-29T08:59:32;2.80;99.90
16158;DHT22;8184;60.256;18.694;2022-12-29T09:02:02;2.80;99.90
16158;DHT22;8184;60.256;18.694;2022-12-29T09:04:30;2.70;99.90
16158;DHT22;8184;60.256;18.694;2022-12-29T09:06:59;2.70;99.90
16158;DHT22;8184;60.256;18.694;2022-12-29T09:09:27;2.70;99.90
16158;DHT22;8184;60.256;18.694;2022-12-29T09:11:56;2.80;99.90
16158;DHT22;8184;60.256;18.694;2022-12-29T09:14:24;2.80;99.90
16158;DHT22;8184;60.256;18.694;2022-12-29T09:16:52;2.80;99.90
16158;DHT22;8184;60.256;18.694;2022-12-29T09:19:39;2.90;99.90
16158;DHT22;8184;60.256;18.694;2022-12-29T09:22:07;2.80;99.90
16158;DHT22;8184;60.256;18.694;2022-12-29T09:24:35;2.90;99.90
16158;DHT22;8184;60.256;18.694;2022-12-29T09:27:03;2.80;99.90
16158;DHT22;8184;60.256;18.694;2022-12-29T09:29:33;2.80;99.90
16158;DHT22;8184;60.256;18.694;2022-12-29T09:32:02;2.70;99.90
16158;DHT22;8184;60.256;18.694;2022-12-29T09:34:33;2.70;99.90
16158;DHT22;8184;60.256;18.694;2022-12-29T09:37:05;2.70;99.90
16158;DHT22;8184;60.256;18.694;2022-12-29T09:39:34;2.80;99.90
16158;DHT22;8184;60.256;18.694;2022-12-29T09:42:03;2.80;99.90
16158;DHT22;8184;60.256;18.694;2022-12-29T09:44:38;2.90;99.90
16158;DHT22;8184;60.256;18.694;2022-12-29T09:47:11;2.80;99.90
16158;DHT22;8184;60.256;18.694;2022-12-29T09:49:42;2.90;99.90
16158;DHT22;8184;60.256;18.694;2022-12-29T09:52:14;2.90;99.90
16158;DHT22;8184;60.256;18.694;2022-12-29T09:54:46;2.90;99.90
16158;DHT22;8184;60.256;18.694;2022-12-29T09:57:29;2.90;99.90
16158;DHT22;8184;60.256;18.694;2022-12-29T10:00:01;2.90;99.90
16158;DHT22;8184;60.256;18.694;2022-12-29T10:02:32;2.90;99.90
16158;DHT22;8184;60.256;18.694;2022-12-29T10:05:02;3.00;99.90
16158;DHT22;8184;60.256;18.694;2022-12-29T10:07:38;3.00;99.90
16158;DHT22;8184;60.256;18.694;2022-12-29T10:10:13;3.00;99.90
16158;DHT22;8184;60.256;18.694;2022-12-29T10:12:50;3.00;99.90
16158;DHT22;8184;60.256;18.694;2022-12-29T10:15:35;3.10;99.90
16158;DHT22;8184;60.256;18.694;2022-12-29T10:18:10;3.00;99.90
16158;DHT22;8184;60.256;18.694;2022-12-29T10:20:45;3.00;99.90
16158;DHT22;8184;60.256;18.694;2022-12-29T10:23:25;3.10;99.90
16158;DHT22;8184;60.256;18.694;2022-12-29T10:25:54;3.10;99.90
16158;DHT22;8184;60.256;18.694;2022-12-29T10:28:23;3.10;99.90
16158;DHT22;8184;60.256;18.694;2022-12-29T10:30:52;3.20;99.90
16158;DHT22;8184;60.256;18.694;2022-12-29T10:33:22;3.10;99.90
16158;DHT22;8184;60.256;18.694;2022-12-29T10:35:52;3.10;99.90
16158;DHT22;8184;60.256;18.694;2022-12-29T10:38:22;3.10;99.90
16158;DHT22;8184;60.256;18.694;2022-12-29T10:40:57;3.10;99.90
16158;DHT22;8184;60.256;18.694;2022-12-29T10:43:27;3.10;99.90
16158;DHT22;8184;60.256;18.694;2022-12-29T10:45:56;3.10;99.90
16158;DHT22;8184;60.256;18.694;2022-12-29T10:48:28;3.10;99.90
16158;DHT22;8184;60.256;18.694;2022-12-29T10:50:58;3.10;99.90
16158;DHT22;8184;60.256;18.694;2022-12-29T10:53:30;3.20;99.90
16158;DHT22;8184;60.256;18.694;2022-12-29T10:56:02;3.10;99.90
16158;DHT22;8184;60.256;18.694;2022-12-29T10:58:33;3.10;99.90
16158;DHT22;8184;60.256;18.694;2022-12-29T11:01:01;3.20;99.90
16158;DHT22;8184;60.256;18.694;2022-12-29T11:03:41;3.20;99.90
16158;DHT22;8184;60.256;18.694;2022-12-29T11:06:15;3.10;99.90
16158;DHT22;8184;60.256;18.694;2022-12-29T11:08:47;3.20;99.90
16158;DHT22;8184;60.256;18.694;2022-12-29T11:11:23;3.20;99.90
16158;DHT22;8184;60.256;18.694;2022-12-29T11:13:56;3.20;99.90
16158;DHT22;8184;60.256;18.694;2022-12-29T11:16:28;3.20;99.90
16158;DHT22;8184;60.256;18.694;2022-12-29T11:18:57;3.10;99.90
16158;DHT22;8184;60.256;18.694;2022-12-29T11:21:27;3.20;99.90
16158;DHT22;8184;60.256;18.694;2022-12-29T11:23:58;3.10;99.90
16158;DHT22;8184;60.256;18.694;2022-12-29T11:26:28;3.20;99.90
16158;DHT22;8184;60.256;18.694;2022-12-29T11:29:20;3.20;99.90
16158;DHT22;8184;60.256;18.694;2022-12-29T11:31:49;3.20;99.90
16158;DHT22;8184;60.256;18.694;2022-12-29T11:34:18;3.20;99.90
16158;DHT22;8184;60.256;18.694;2022-12-29T11:36:47;3.20;99.90
16158;DHT22;8184;60.256;18.694;2022-12-29T11:39:24;3.30;99.90
16158;DHT22;8184;60.256;18.694;2022-12-29T11:41:55;3.40;99.90
16158;DHT22;8184;60.256;18.694;2022-12-29T11:44:24;3.40;99.90
16158;DHT22;8184;60.256;18.694;2022-12-29T11:46:52;3.40;99.90
16158;DHT22;8184;60.256;18.694;2022-12-29T11:49:22;3.40;99.90
16158;DHT22;8184;60.256;18.694;2022-12-29T11:51:51;3.40;99.90
16158;DHT22;8184;60.256;18.694;2022-12-29T11:54:24;3.50;99.90
16158;DHT22;8184;60.256;18.694;2022-12-29T11:56:55;3.50;99.90
16158;DHT22;8184;60.256;18.694;2022-12-29T11:59:24;3.40;99.90
16158;DHT22;8184;60.256;18.694;2022-12-29T12:01:58;3.40;99.90
16158;DHT22;8184;60.256;18.694;2022-12-29T12:04:27;3.40;99.90
16158;DHT22;8184;60.256;18.694;2022-12-29T12:06:58;3.40;99.90
16158;DHT22;8184;60.256;18.694;2022-12-29T12:09:28;3.50;99.90
16158;DHT22;8184;60.256;18.694;2022-12-29T12:12:02;3.40;99.90
16158;DHT22;8184;60.256;18.694;2022-12-29T12:14:31;3.50;99.90
16158;DHT22;8184;60.256;18.694;2022-12-29T12:17:03;3.50;99.90
16158;DHT22;8184;60.256;18.694;2022-12-29T12:19:33;3.60;99.90
16158;DHT22;8184;60.256;18.694;2022-12-29T12:22:07;3.60;99.90
16158;DHT22;8184;60.256;18.694;2022-12-29T12:24:39;3.60;99.90
16158;DHT22;8184;60.256;18.694;2022-12-29T12:27:12;3.60;99.90
16158;DHT22;8184;60.256;18.694;2022-12-29T12:29:46;3.60;99.90
16158;DHT22;8184;60.256;18.694;2022-12-29T12:32:16;3.60;99.90
16158;DHT22;8184;60.256;18.694;2022-12-29T12:34:45;3.60;99.90
16158;DHT22;8184;60.256;18.694;2022-12-29T12:37:30;3.60;99.90
16158;DHT22;8184;60.256;18.694;2022-12-29T12:40:06;3.60;99.90
16158;DHT22;8184;60.256;18.694;2022-12-29T12:42:43;3.60;99.90
16158;DHT22;8184;60.256;18.694;2022-12-29T12:45:26;3.60;99.90
16158;DHT22;8184;60.256;18.694;2022-12-29T12:47:59;3.60;99.90
16158;DHT22;8184;60.256;18.694;2022-12-29T12:50:39;3.70;99.90
16158;DHT22;8184;60.256;18.694;2022-12-29T12:53:15;3.60;99.90
16158;DHT22;8184;60.256;18.694;2022-12-29T12:55:53;3.50;99.90
16158;DHT22;8184;60.256;18.694;2022-12-29T12:58:28;3.50;99.90
16158;DHT22;8184;60.256;18.694;2022-12-29T13:01:01;3.50;99.90
16158;DHT22;8184;60.256;18.694;2022-12-29T13:03:37;3.50;99.90
16158;DHT22;8184;60.256;18.694;2022-12-29T13:06:18;3.50;99.90
16158;DHT22;8184;60.256;18.694;2022-12-29T13:08:57;3.40;99.90
16158;DHT22;8184;60.256;18.694;2022-12-29T13:11:28;3.40;99.90
16158;DHT22;8184;60.256;18.694;2022-12-29T13:14:09;3.40;99.90
16158;DHT22;8184;60.256;18.694;2022-12-29T13:16:40;3.40;99.90
16158;DHT22;8184;60.256;18.694;2022-12-29T13:19:13;3.50;99.90
16158;DHT22;8184;60.256;18.694;2022-12-29T13:21:46;3.40;99.90
16158;DHT22;8184;60.256;18.694;2022-12-29T13:24:31;3.40;99.90
16158;DHT22;8184;60.256;18.694;2022-12-29T13:27:04;3.50;99.90
16158;DHT22;8184;60.256;18.694;2022-12-29T13:29:38;3.50;99.90
16158;DHT22;8184;60.256;18.694;2022-12-29T13:32:13;3.50;99.90
16158;DHT22;8184;60.256;18.694;2022-12-29T13:34:44;3.50;99.90
16158;DHT22;8184;60.256;18.694;2022-12-29T13:37:17;3.60;99.90
16158;DHT22;8184;60.256;18.694;2022-12-29T13:39:47;3.50;99.90
16158;DHT22;8184;60.256;18.694;2022-12-29T13:42:17;3.50;99.90
16158;DHT22;8184;60.256;18.694;2022-12-29T13:44:48;3.50;99.90
16158;DHT22;8184;60.256;18.694;2022-12-29T13:47:20;3.60;99.90
16158;DHT22;8184;60.256;18.694;2022-12-29T13:49:50;3.50;99.90
16158;DHT22;8184;60.256;18.694;2022-12-29T13:52:21;3.70;99.90
16158;DHT22;8184;60.256;18.694;2022-12-29T13:54:55;3.80;99.90
16158;DHT22;8184;60.256;18.694;2022-12-29T13:57:30;3.80;99.90
16158;DHT22;8184;60.256;18.694;2022-12-29T14:00:10;3.80;99.90
16158;DHT22;8184;60.256;18.694;2022-12-29T14:02:42;3.80;99.90
16158;DHT22;8184;60.256;18.694;2022-12-29T14:07:58;3.80;99.90
16158;DHT22;8184;60.256;18.694;2022-12-29T14:10:30;3.80;99.90
16158;DHT22;8184;60.256;18.694;2022-12-29T14:13:03;3.80;99.90
16158;DHT22;8184;60.256;18.694;2022-12-29T14:15:36;3.90;99.90
16158;DHT22;8184;60.256;18.694;2022-12-29T14:18:12;3.80;99.90
16158;DHT22;8184;60.256;18.694;2022-12-29T14:20:46;3.90;99.90
16158;DHT22;8184;60.256;18.694;2022-12-29T14:23:24;3.90;99.90
16158;DHT22;8184;60.256;18.694;2022-12-29T14:25:57;3.90;99.90
16158;DHT22;8184;60.256;18.694;2022-12-29T14:28:26;3.90;99.90
16158;DHT22;8184;60.256;18.694;2022-12-29T14:30:57;3.90;99.90
16158;DHT22;8184;60.256;18.694;2022-12-29T14:33:27;3.90;99.90
16158;DHT22;8184;60.256;18.694;2022-12-29T14:35:55;3.90;99.90
16158;DHT22;8184;60.256;18.694;2022-12-29T14:38:24;3.90;99.90
16158;DHT22;8184;60.256;18.694;2022-12-29T14:41:15;3.90;99.90
16158;DHT22;8184;60.256;18.694;2022-12-29T14:44:00;4.00;99.90
16158;DHT22;8184;60.256;18.694;2022-12-29T14:46:46;4.00;99.90
16158;DHT22;8184;60.256;18.694;2022-12-29T14:49:16;4.00;99.90
16158;DHT22;8184;60.256;18.694;2022-12-29T14:51:46;3.90;99.90
16158;DHT22;8184;60.256;18.694;2022-12-29T14:57:02;4.00;99.90
16158;DHT22;8184;60.256;18.694;2022-12-29T14:59:31;4.10;99.90
16158;DHT22;8184;60.256;18.694;2022-12-29T15:02:03;4.10;99.90
16158;DHT22;8184;60.256;18.694;2022-12-29T15:04:33;4.10;99.90
16158;DHT22;8184;60.256;18.694;2022-12-29T15:07:04;4.20;99.90
16158;DHT22;8184;60.256;18.694;2022-12-29T15:09:37;4.10;99.90
16158;DHT22;8184;60.256;18.694;2022-12-29T15:12:12;4.10;99.90
16158;DHT22;8184;60.256;18.694;2022-12-29T15:14:49;4.20;99.90
16158;DHT22;8184;60.256;18.694;2022-12-29T15:17:24;4.10;99.90
16158;DHT22;8184;60.256;18.694;2022-12-29T15:19:53;4.10;99.90
16158;DHT22;8184;60.256;18.694;2022-12-29T15:22:21;4.10;99.90
16158;DHT22;8184;60.256;18.694;2022-12-29T15:24:51;4.10;99.90
16158;DHT22;8184;60.256;18.694;2022-12-29T15:27:21;4.10;99.90
16158;DHT22;8184;60.256;18.694;2022-12-29T15:29:55;4.10;99.90
16158;DHT22;8184;60.256;18.694;2022-12-29T15:32:26;4.00;99.90
16158;DHT22;8184;60.256;18.694;2022-12-29T15:34:56;3.90;99.90
16158;DHT22;8184;60.256;18.694;2022-12-29T15:37:27;4.10;99.90
16158;DHT22;8184;60.256;18.694;2022-12-29T15:39:55;4.20;99.90
16158;DHT22;8184;60.256;18.694;2022-12-29T15:42:29;4.10;99.90
16158;DHT22;8184;60.256;18.694;2022-12-29T15:45:02;4.10;99.90
16158;DHT22;8184;60.256;18.694;2022-12-29T15:47:38;4.10;99.90
16158;DHT22;8184;60.256;18.694;2022-12-29T15:50:09;4.10;99.90
16158;DHT22;8184;60.256;18.694;2022-12-29T15:52:42;4.10;99.90
16158;DHT22;8184;60.256;18.694;2022-12-29T15:55:17;4.20;99.90
16158;DHT22;8184;60.256;18.694;2022-12-29T15:57:46;4.10;99.90
16158;DHT22;8184;60.256;18.694;2022-12-29T16:00:21;4.10;99.90
16158;DHT22;8184;60.256;18.694;2022-12-29T16:02:52;4.10;99.90
16158;DHT22;8184;60.256;18.694;2022-12-29T16:05:21;4.10;99.90
16158;DHT22;8184;60.256;18.694;2022-12-29T16:07:53;4.10;99.90
16158;DHT22;8184;60.256;18.694;2022-12-29T16:10:25;4.10;99.90
16158;DHT22;8184;60.256;18.694;2022-12-29T16:13:01;4.00;99.90
16158;DHT22;8184;60.256;18.694;2022-12-29T16:15:29;4.00;99.90
16158;DHT22;8184;60.256;18.694;2022-12-29T16:17:59;4.10;99.90
16158;DHT22;8184;60.256;18.694;2022-12-29T16:20:34;4.10;99.90